Terminal Aerodrome Forecast
Issued by NWS

Home | Current Version | Previous Version | Text Only | Print | Product List | Glossary On
Versions: 1 2 3 4 5 6 7 8 9 10 11 12 13 14 15 16 17 18 19 20 21 22
704
FTUS41 KRLX 111720
TAFCKB
TAF
KCKB 111720Z 1118/1218 21006KT P6SM FEW030 BKN100
     FM120800 22007KT P6SM OVC060
     FM121000 23008KT P6SM OVC030
     FM121200 25010KT 3SM -SHSN OVC030
     FM121500 27011G21KT 2SM -SHSN BKN017=

USA.gov is the U.S. government's official web portal to all federal, state and local government web resources and services.